Hastings Natural History Reservation, California Weather observations

Data are for 10 minute period ending at time listed.
 Day   Time   Solar   Ave.   Ave.  Ave.  Vector  Max.   Baro.   Total    
  of    of     Rad.   Air    Rel.  Wind   Wind   Wind  Press.  Precip.   
Year   Day            Temp.  Hum.  Speed  Dir.   Gust                    
2014   (PST)  Kw/m2    F      %     mph   deg.    mph    mb.     in.     
-------------------------------------------------------------------------
 240    9:30   0.48   74.6    25    2.1   224     4.6   954.0    0.00 
 240    9:40   0.51   75.4    24    2.3   236     4.6   953.9    0.00 
 240    9:50   0.55   75.9    23    2.4   244     5.2   954.0    0.00 
 240   10:00   0.58   76.2    22    3.7   240     6.5   953.9    0.00 
 240   10:10   0.60   79.1    18    1.3   149     3.3   953.9    0.00 
 240   10:20   0.64   79.8    19    2.5   250     7.1   954.0    0.00 
 240   10:30   0.66   80.9    18    1.5   259     5.0   954.1    0.00 
 240   10:40   0.70   81.5    17    3.0   246     8.3   954.2    0.00 
 240   10:50   0.72   81.3    18    3.3   250     7.9   954.3    0.00 
 240   11:00   0.74   81.6    18    2.9   255     6.9   954.2    0.00 
 240   11:10   0.76   81.7    20    2.7   260     8.0   954.2    0.00 
 240   11:20   0.78   82.3    19    2.7   251     7.6   954.2    0.00 
 240   11:30   0.77   82.6    19    4.1   245     9.5   954.1    0.00 
 240   11:40   0.77   83.0    19    3.7   257     8.2   954.1    0.00 
 240   11:50   0.82   83.0    19    4.3   237     9.6   954.1    0.00 
 240   12:00   0.80   82.6    20    5.3   231    12.1   954.0    0.00 
 240   12:10   0.82   83.5    20    5.5   228     9.7   953.9    0.00 
 240   12:20   0.83   84.0    20    5.1   231     8.8   953.8    0.00 
 240   12:30   0.75   85.1    19    4.8   245    10.4   953.8    0.00 
 240   12:40   0.69   85.3    20    6.0   244    12.1   953.6    0.00 
 240   12:50   0.79   87.9    18    2.2   259     8.5   953.5    0.00 
 240   13:00   0.73   87.5    19    4.4   254     9.8   953.4    0.00 
 240   13:10   0.73   88.0    18    4.4   251     9.9   953.3    0.00 
 240   13:20   0.77   88.2    22    4.7   256    11.4   953.1    0.00 
 240   13:30   0.78   88.4    24    3.7   260    11.2   953.1    0.00 
 240   13:40   0.77   89.2    24    3.3   321    11.1   953.0    0.00 
 240   13:50   0.80   88.0    26    5.6   254    11.8   953.0    0.00 
 240   14:00   0.74   86.2    28    4.4   251     9.9   953.0    0.00 
 240   14:10   0.68   86.8    27    3.1   255     9.8   953.0    0.00 
 240   14:20   0.73   87.0    27    3.9   258     9.7   952.9    0.00 
 240   14:30   0.74   86.3    29    4.8   253    11.2   952.9    0.00 
 240   14:40   0.70   85.8    31    3.9   271    11.0   952.9    0.00 
 240   14:50   0.70   86.9    32    3.6   280     9.2   952.9    0.00 
 240   15:00   0.66   85.5    33    2.9   282     9.6   952.9    0.00 
 240   15:10   0.64   85.4    33    2.7   281    11.0   952.9    0.00 
 240   15:20   0.67   84.7    34    3.4   288     9.1   952.8    0.00 
 240   15:30   0.71   84.8    32    4.3   265    11.3   952.8    0.00 
 240   15:40   0.68   85.0    32    2.4   278     7.5   952.8    0.00 
 240   15:50   0.70   84.6    32    3.4   264    11.0   952.8    0.00 
 240   16:00   0.67   83.5    34    4.5   276    12.5   952.8    0.00 
 240   16:10   0.64   83.1    32    3.6   284    10.3   952.8    0.00 
 240   16:20   0.65   83.5    30    3.5   259    10.5   952.9    0.00 
 240   16:30   0.60   82.7    33    3.0   306     8.2   952.9    0.00 
 240   16:40   0.59   82.9    32    2.1   338     6.9   952.9    0.00 
 240   16:50   0.54   82.4    31    3.3   339     9.5   952.9    0.00 
 240   17:00   0.53   82.4    30    2.6   311     7.6   952.8    0.00 
 240   17:10   0.51   82.4    32    1.7   292     7.0   952.7    0.00 
 240   17:20   0.48   82.7    33    2.0   291     5.8   952.6    0.00 
 240   17:30   0.45   81.7    32    3.0   301     8.6   952.6    0.00 
 240   17:40   0.41   81.4    32    2.1   288     9.3   952.6    0.00 
 240   17:50   0.38   79.4    35    2.6   252     6.9   952.5    0.00 
 240   18:00   0.34   79.4    34    2.1   337     6.9   952.5    0.00 
 240   18:10   0.31   79.4    35    1.9   347     6.6   952.6    0.00 
 240   18:20   0.27   78.7    35    1.7   330     5.0   952.6    0.00 
 240   18:30   0.24   78.2    34    1.5   321     4.7   952.5    0.00 
 240   18:40   0.16   77.2    32    2.2   268     7.3   952.5    0.00 
 240   18:50   0.04   76.3    32    1.4   284     7.0   952.5    0.00 
 240   19:00   0.03   75.8    33    1.0   288     3.4   952.2    0.00 
 240   19:10   0.01   75.3    34    2.9   245     5.8   952.1    0.00 
 240   19:20   0.01   74.7    36    0.9   261     3.4   952.1    0.00 
 240   19:30   0.01   73.8    38    0.3   248     1.4   952.1    0.00 
 240   19:40   0.00   72.5    40    0.1    19     0.7   952.0    0.00 
 240   19:50   0.00   70.8    41    0.3    94     2.5   951.9    0.00 
 240   20:00   0.00   69.6    39    0.0   331     0.5   951.9    0.00 
 240   20:10   0.00   68.4    41    0.1   204     1.8   951.8    0.00 
 240   20:20   0.00   67.2    41    0.3   237     1.5   951.8    0.00 
 240   20:30   0.00   66.2    42    0.2   239     1.0   951.8    0.00 
 240   20:40   0.00   65.4    43    1.4   105     3.3   951.8    0.00 
 240   20:50   0.00   65.0    42    1.3   100     3.9   951.9    0.00 
 240   21:00   0.00   64.3    43    0.6   173     1.9   952.0    0.00 
 240   21:10   0.00   63.8    44    0.2   216     1.5   952.1    0.00 
 240   21:20   0.00   63.2    44    0.7   248     2.3   952.3    0.00 
 240   21:30   0.00   62.9    45    0.2   235     0.9   952.4    0.00 
 240   21:40   0.00   62.4    47    0.2    66     0.9   952.5    0.00 
 240   21:50   0.00   62.2    48    0.5    64     1.5   952.6    0.00 
 240   22:00   0.00   62.0    49    0.8    49     1.7   952.6    0.00 
 240   22:10   0.00   61.7    49    0.4    28     1.3   952.7    0.00 
 240   22:20   0.00   61.1    51    0.4    51     1.4   952.7    0.00 
 240   22:30   0.00   60.8    52    0.3    63     1.1   952.7    0.00 
 240   22:40   0.00   60.5    53    0.3    40     0.9   952.7    0.00 
 240   22:50   0.00   60.2    54    0.4    49     1.8   952.7    0.00 
 240   23:00   0.00   59.9    54    0.1    27     1.2   952.7    0.00 
 240   23:10   0.00   59.5    54    0.6    63     2.6   952.7    0.00 
 240   23:20   0.00   59.3    55    0.8    49     1.5   952.7    0.00 
 240   23:30   0.00   59.1    56    0.3    55     1.1   952.7    0.00 
 240   23:40   0.00   58.8    57    1.3    56     2.1   952.8    0.00 
 240   23:50   0.00   58.8    57    0.8    54     2.4   952.7    0.00 
 241    0:00   0.00   58.9    57    0.3   272     2.7   952.7    0.00 
 241    0:10   0.00   58.2    57    0.5   318     2.1   952.8    0.00 
 241    0:20   0.00   58.1    58    0.1    32     1.2   952.8    0.00 
 241    0:30   0.00   58.0    58    0.1   244     1.2   952.7    0.00 
 241    0:40   0.00   57.8    58    0.3   246     1.5   952.6    0.00 
 241    0:50   0.00   57.5    59    0.1   261     0.9   952.6    0.00 
 241    1:00   0.00   57.3    59    0.2    58     1.7   952.5    0.00 
 241    1:10   0.00   57.4    59    0.4   239     2.0   952.5    0.00 
 241    1:20   0.00   57.2    60    0.1   216     1.2   952.4    0.00 
 241    1:30   0.00   57.2    60    0.1   240     1.0   952.4    0.00 
 241    1:40   0.00   56.9    62    0.1    55     1.3   952.3    0.00 
 241    1:50   0.00   57.0    62    0.5    61     1.9   952.2    0.00 
 241    2:00   0.00   56.9    62    0.2   236     1.2   952.1    0.00 
 241    2:10   0.00   56.6    63    0.1   245     1.2   951.9    0.00 
 241    2:20   0.00   56.3    64    0.1    38     0.9   951.9    0.00 
 241    2:30   0.00   56.3    64    0.0    47     0.8   951.9    0.00 
 241    2:40   0.00   56.3    65    0.1    52     0.9   951.9    0.00 
 241    2:50   0.00   56.3    66    0.6    54     1.9   951.9    0.00 
 241    3:00   0.00   56.3    65    0.0     0     0.0   951.8    0.00 
 241    3:10   0.00   56.0    66    0.1    44     1.0   951.7    0.00 
 241    3:20   0.00   55.9    67    0.4   244     1.5   951.7    0.00 
 241    3:30   0.00   55.6    67    0.3   244     1.4   951.6    0.00 
 241    3:40   0.00   55.5    68    0.3   254     1.5   951.5    0.00 
 241    3:50   0.00   55.5    67    0.2   228     1.2   951.6    0.00 
 241    4:00   0.00   55.5    67    0.8    60     2.0   951.6    0.00 
 241    4:10   0.00   55.8    66    0.5    52     1.8   951.5    0.00 
 241    4:20   0.00   55.2    66    0.9   254     1.8   951.5    0.00 
 241    4:30   0.00   55.2    67    0.7    56     2.2   951.5    0.00 
 241    4:40   0.00   55.1    66    0.3   243     1.4   951.4    0.00 
 241    4:50   0.00   54.5    67    0.6   248     1.8   951.3    0.00 
 241    5:00   0.00   54.0    68    0.5    40     2.0   951.3    0.00 
 241    5:10   0.00   54.0    68    0.3   238     1.4   951.3    0.00 
 241    5:20   0.00   53.9    68    0.4   244     2.2   951.2    0.00 
 241    5:30   0.00   53.5    68    0.3   254     1.5   951.2    0.00 
 241    5:40   0.00   53.5    68    0.5   247     1.7   951.2    0.00 
 241    5:50   0.00   53.4    68    0.5   234     2.0   951.3    0.00 
 241    6:00   0.00   53.4    67    0.2   251     1.2   951.3    0.00 
 241    6:10   0.00   53.7    66    0.6   215     2.0   951.3    0.00 
 241    6:20   0.00   53.5    66    0.6   232     2.2   951.4    0.00 
 241    6:30   0.00   53.5    65    0.4   243     2.1   951.5    0.00 
 241    6:40   0.00   53.4    65    0.0   246     0.7   951.5    0.00 
 241    6:50   0.00   53.3    65    0.4   249     1.5   951.5    0.00 
 241    7:00   0.00   53.5    64    0.0   256     0.4   951.6    0.00 
 241    7:10   0.01   53.6    64    0.0     0     0.0   951.7    0.00 
 241    7:20   0.01   54.0    63    0.1   249     1.1   951.6    0.00 
 241    7:30   0.01   54.4    62    0.2    64     0.9   951.6    0.00 
 241    7:40   0.01   55.2    60    0.1   107     0.9   951.5    0.00 
 241    7:50   0.01   55.9    59    1.3    77     4.1   951.4    0.00 
 241    8:00   0.02   57.0    56    1.2    73     3.3   951.4    0.00 
 241    8:10   0.03   59.2    52    0.9    75     3.4   951.4    0.00 
 241    8:20   0.03   63.5    42    2.1    78     4.5   951.3    0.00 
 241    8:30   0.26   67.8    39    0.8    76     3.1   951.3    0.00 
 241    8:40   0.29   71.2    34    0.2   242     1.1   951.3    0.00 
 241    8:50   0.33   75.1    31    0.1   238     0.7   951.1    0.00 
 241    9:00   0.36   76.2    30    0.6   202     1.4   951.1    0.00 
 241    9:10   0.40   78.8    27    1.1   128     3.2   950.9    0.00 
 241    9:20   0.43   79.9    26    2.5   229     6.1   950.8    0.00 

Return to Hastings Natural History Reservation graphs page.


Western Regional Climate Center,wrcc@dri.edu